createdAt,value
2023-01-01T00:00:21.267Z,15.35
2023-01-01T00:01:21.225Z,15.19
2023-01-01T00:02:21.309Z,15.19
2023-01-01T00:03:21.221Z,15.16
2023-01-01T00:04:21.228Z,15.14
2023-01-01T00:05:21.187Z,15.17
2023-01-01T00:06:21.174Z,15.09
2023-01-01T00:07:21.156Z,15.09
2023-01-01T00:08:21.172Z,15.11
2023-01-01T00:09:21.132Z,15.14
2023-01-01T00:10:21.167Z,15.17
2023-01-01T00:11:21.116Z,15.10
2023-01-01T00:12:21.132Z,15.19
2023-01-01T00:13:21.103Z,15.16
2023-01-01T00:14:21.097Z,15.07
2023-01-01T00:15:21.075Z,15.09
2023-01-01T00:16:21.128Z,14.94
2023-01-01T00:17:21.053Z,14.91
2023-01-01T00:18:21.041Z,14.91
2023-01-01T00:19:21.067Z,14.91
2023-01-01T00:20:21.036Z,14.89
2023-01-01T00:21:21.003Z,14.84
2023-01-01T00:22:53.439Z,14.83
2023-01-01T00:23:21.985Z,14.88
2023-01-01T00:24:20.993Z,14.95
2023-01-01T00:25:20.963Z,15.07
2023-01-01T00:26:20.951Z,15.07
2023-01-01T00:27:20.944Z,15.06
2023-01-01T00:28:20.953Z,15.10
2023-01-01T00:29:20.946Z,15.03
2023-01-01T00:30:20.931Z,15.09
2023-01-01T00:31:20.959Z,14.98
2023-01-01T00:32:23.071Z,15.03
2023-01-01T00:33:20.901Z,14.98
2023-01-01T00:34:20.887Z,14.98
2023-01-01T00:35:20.856Z,14.91
2023-01-01T00:36:20.865Z,14.84
2023-01-01T00:37:20.855Z,14.86
2023-01-01T00:38:20.823Z,14.78
2023-01-01T00:39:20.806Z,14.68
2023-01-01T00:40:21.592Z,14.73
2023-01-01T00:41:20.807Z,14.54
2023-01-01T00:42:20.789Z,14.60
2023-01-01T00:43:20.766Z,14.57
2023-01-01T00:44:20.770Z,14.55
2023-01-01T00:45:22.309Z,14.58
2023-01-01T00:46:20.801Z,14.51
2023-01-01T00:47:20.734Z,14.50
2023-01-01T00:48:20.729Z,14.51
2023-01-01T00:49:20.702Z,14.46
2023-01-01T00:50:20.706Z,14.50
2023-01-01T00:51:20.687Z,14.50
2023-01-01T00:52:20.674Z,14.40
2023-01-01T00:53:20.676Z,14.47
2023-01-01T00:54:20.656Z,14.54
2023-01-01T00:55:20.651Z,14.52
2023-01-01T00:56:20.631Z,14.58
2023-01-01T00:57:20.658Z,14.54
2023-01-01T00:58:20.631Z,14.61
2023-01-01T00:59:23.902Z,14.68
2023-01-01T01:00:21.591Z,14.80
2023-01-01T01:01:20.657Z,14.78
2023-01-01T01:02:20.752Z,14.88
2023-01-01T01:03:20.643Z,14.96
2023-01-01T01:04:20.532Z,14.83
2023-01-01T01:05:20.535Z,14.89
2023-01-01T01:06:20.516Z,14.88
2023-01-01T01:07:20.517Z,14.77
2023-01-01T01:08:23.019Z,14.80
2023-01-01T01:09:21.509Z,14.81
2023-01-01T01:10:20.466Z,14.78
2023-01-01T01:11:20.467Z,14.83
2023-01-01T01:12:20.455Z,14.84
2023-01-01T01:13:20.440Z,14.83
2023-01-01T01:14:20.436Z,14.83
2023-01-01T01:15:20.461Z,14.92
2023-01-01T01:16:20.499Z,14.86
2023-01-01T01:17:20.397Z,14.89
2023-01-01T01:18:20.382Z,14.84
2023-01-01T01:19:20.388Z,15.02
2023-01-01T01:20:20.380Z,14.95
2023-01-01T01:21:20.394Z,15.06
2023-01-01T01:22:25.983Z,15.06
2023-01-01T01:23:21.402Z,15.07
2023-01-01T01:24:20.338Z,14.99
2023-01-01T01:25:20.309Z,15.06
2023-01-01T01:26:20.334Z,15.11
2023-01-01T01:27:20.304Z,15.09
2023-01-01T01:28:20.310Z,15.23
2023-01-01T01:29:20.275Z,15.09
2023-01-01T01:30:20.262Z,15.14
2023-01-01T01:31:20.317Z,15.10
2023-01-01T01:32:20.252Z,15.07
2023-01-01T01:33:20.235Z,15.09
2023-01-01T01:34:27.151Z,15.09
2023-01-01T01:35:21.200Z,15.11
2023-01-01T01:36:20.182Z,15.06
2023-01-01T01:37:20.170Z,15.07
2023-01-01T01:38:20.210Z,15.09
2023-01-01T01:39:20.248Z,15.02
2023-01-01T01:40:20.145Z,15.13
2023-01-01T01:41:27.948Z,15.19
2023-01-01T01:42:21.147Z,15.06
2023-01-01T01:43:20.123Z,15.14
2023-01-01T01:44:20.126Z,15.11
2023-01-01T01:45:20.094Z,15.09
2023-01-01T01:46:20.151Z,15.09
2023-01-01T01:47:20.100Z,15.10
2023-01-01T01:48:20.068Z,15.02
2023-01-01T01:49:20.050Z,15.09
2023-01-01T01:50:20.116Z,15.17
2023-01-01T01:51:20.023Z,15.11
2023-01-01T01:52:20.014Z,15.17
2023-01-01T01:53:20.010Z,15.14
2023-01-01T01:54:19.990Z,15.19
2023-01-01T01:55:20.005Z,15.13
2023-01-01T01:56:19.990Z,15.10
2023-01-01T01:57:19.958Z,15.16
2023-01-01T01:58:19.953Z,15.10
2023-01-01T01:59:19.970Z,15.11
2023-01-01T02:00:19.930Z,15.23
2023-01-01T02:01:20.017Z,15.20
2023-01-01T02:02:20.115Z,15.10
2023-01-01T02:03:19.922Z,15.23
2023-01-01T02:04:19.928Z,15.11
2023-01-01T02:05:19.873Z,15.21
2023-01-01T02:06:19.879Z,15.16
2023-01-01T02:07:19.851Z,15.07
2023-01-01T02:08:19.859Z,15.01
2023-01-01T02:09:19.845Z,15.16
2023-01-01T02:10:19.812Z,15.01
2023-01-01T02:11:22.078Z,15.01
2023-01-01T02:12:19.810Z,15.09
2023-01-01T02:13:19.786Z,15.03
2023-01-01T02:14:19.800Z,15.06
2023-01-01T02:15:19.763Z,14.92
2023-01-01T02:16:19.766Z,14.98
2023-01-01T02:17:19.777Z,15.01
2023-01-01T02:18:19.731Z,14.96
2023-01-01T02:19:19.745Z,14.98
2023-01-01T02:20:19.735Z,14.95
2023-01-01T02:21:19.697Z,14.91
2023-01-01T02:22:19.686Z,14.86
2023-01-01T02:23:19.703Z,14.89
2023-01-01T02:24:19.668Z,14.88
2023-01-01T02:25:19.657Z,14.84
2023-01-01T02:26:19.664Z,14.81
2023-01-01T02:27:19.647Z,14.81
2023-01-01T02:28:19.619Z,14.83
2023-01-01T02:29:19.610Z,14.89
2023-01-01T02:30:19.600Z,14.91
2023-01-01T02:31:23.111Z,14.81
2023-01-01T02:32:19.619Z,14.77
2023-01-01T02:33:19.569Z,14.88
2023-01-01T02:34:19.573Z,14.81
2023-01-01T02:35:19.543Z,14.84
2023-01-01T02:36:19.559Z,14.80
2023-01-01T02:37:19.547Z,14.77
2023-01-01T02:38:19.538Z,14.80
2023-01-01T02:39:19.518Z,14.77
2023-01-01T02:40:19.487Z,14.78
2023-01-01T02:41:19.497Z,14.77
2023-01-01T02:42:19.485Z,14.70
2023-01-01T02:43:24.544Z,14.72
2023-01-01T02:44:20.465Z,14.72
2023-01-01T02:45:19.450Z,14.68
2023-01-01T02:46:49.703Z,14.68
2023-01-01T02:47:49.689Z,14.62
2023-01-01T02:48:49.711Z,14.57
2023-01-01T02:49:49.689Z,14.57
2023-01-01T02:50:49.657Z,14.52
2023-01-01T02:51:49.679Z,14.58
2023-01-01T02:52:49.662Z,14.50
2023-01-01T02:53:49.637Z,14.51
2023-01-01T02:54:49.622Z,14.39
2023-01-01T02:55:49.643Z,14.52
2023-01-01T02:56:49.652Z,14.54
2023-01-01T02:57:49.588Z,14.57
2023-01-01T02:58:49.570Z,14.47
2023-01-01T02:59:49.560Z,14.46
2023-01-01T03:00:49.547Z,14.51
2023-01-01T03:01:49.709Z,14.55
2023-01-01T03:02:51.331Z,14.47
2023-01-01T03:03:49.521Z,14.47
2023-01-01T03:04:49.500Z,14.54
2023-01-01T03:05:49.494Z,14.51
2023-01-01T03:06:49.499Z,14.57
2023-01-01T03:07:49.505Z,14.58
2023-01-01T03:08:49.515Z,14.47
2023-01-01T03:09:49.456Z,14.52
2023-01-01T03:10:49.444Z,14.50
2023-01-01T03:11:49.432Z,14.46
2023-01-01T03:12:49.433Z,14.58
2023-01-01T03:13:49.440Z,14.55
2023-01-01T03:14:49.414Z,14.57
2023-01-01T03:15:49.446Z,14.52
2023-01-01T03:16:49.374Z,14.62
2023-01-01T03:17:49.358Z,14.57
2023-01-01T03:18:49.359Z,14.60
2023-01-01T03:19:49.362Z,14.61
2023-01-01T03:20:49.365Z,14.47
2023-01-01T03:21:49.309Z,14.55
2023-01-01T03:22:49.317Z,14.58
2023-01-01T03:23:50.185Z,14.58
2023-01-01T03:24:49.273Z,14.60
2023-01-01T03:25:49.283Z,14.60
2023-01-01T03:26:49.304Z,14.61
2023-01-01T03:27:49.246Z,14.62
2023-01-01T03:28:49.256Z,14.61
2023-01-01T03:29:49.220Z,14.68
2023-01-01T03:30:49.302Z,14.65
2023-01-01T03:31:49.214Z,14.69
2023-01-01T03:32:49.245Z,14.68
2023-01-01T03:33:49.191Z,14.60
2023-01-01T03:34:49.194Z,14.61
2023-01-01T03:35:49.227Z,14.55
2023-01-01T03:36:49.149Z,14.61
2023-01-01T03:37:49.144Z,14.61
2023-01-01T03:38:49.172Z,14.47
2023-01-01T03:39:49.131Z,14.58
2023-01-01T03:40:49.102Z,14.54
2023-01-01T03:41:49.093Z,14.52
2023-01-01T03:42:49.084Z,14.52
2023-01-01T03:43:49.086Z,14.58
2023-01-01T03:44:49.082Z,14.62
2023-01-01T03:45:49.050Z,14.61
2023-01-01T03:46:49.088Z,14.57
2023-01-01T03:47:49.020Z,14.68
2023-01-01T03:48:49.006Z,14.61
2023-01-01T03:49:49.014Z,14.58
2023-01-01T03:50:49.012Z,14.69
2023-01-01T03:51:48.995Z,14.65
2023-01-01T03:52:48.964Z,14.70
2023-01-01T03:53:48.958Z,14.62
2023-01-01T03:54:52.383Z,14.64
2023-01-01T03:55:49.978Z,14.70
2023-01-01T03:56:48.964Z,14.70
2023-01-01T03:57:48.930Z,14.72
2023-01-01T03:58:48.899Z,14.70
2023-01-01T03:59:48.891Z,14.72
2023-01-01T04:00:48.877Z,14.70
2023-01-01T04:01:49.001Z,14.65
2023-01-01T04:02:49.005Z,14.68
2023-01-01T04:03:48.851Z,14.65
2023-01-01T04:04:48.831Z,14.73
2023-01-01T04:05:48.839Z,14.60
2023-01-01T04:06:48.830Z,14.60
2023-01-01T04:08:19.141Z,14.61
2023-01-01T04:09:19.073Z,14.60
2023-01-01T04:10:19.114Z,14.62
2023-01-01T04:11:19.082Z,14.60
2023-01-01T04:12:19.048Z,14.70
2023-01-01T04:13:19.064Z,14.58
2023-01-01T04:14:19.020Z,14.65
2023-01-01T04:15:19.008Z,14.65
2023-01-01T04:16:19.014Z,14.61
2023-01-01T04:17:18.994Z,14.61
2023-01-01T04:18:19.033Z,14.62
2023-01-01T04:19:18.962Z,14.58
2023-01-01T04:20:18.959Z,14.58
2023-01-01T04:21:18.953Z,14.61
2023-01-01T04:22:18.940Z,14.60
2023-01-01T04:23:18.946Z,14.61
2023-01-01T04:24:18.952Z,14.64
2023-01-01T04:25:18.887Z,14.62
2023-01-01T04:26:18.882Z,14.54
2023-01-01T04:27:18.904Z,14.60
2023-01-01T04:28:18.869Z,14.60
2023-01-01T04:29:18.856Z,14.62
2023-01-01T04:30:18.873Z,14.68
2023-01-01T04:31:18.840Z,14.60
2023-01-01T04:32:18.825Z,14.64
2023-01-01T04:33:18.809Z,14.62
2023-01-01T04:34:18.835Z,14.62
2023-01-01T04:35:18.783Z,14.68
2023-01-01T04:36:18.807Z,14.61
2023-01-01T04:37:18.763Z,14.62
2023-01-01T04:38:18.760Z,14.68
2023-01-01T04:39:18.774Z,14.72
2023-01-01T04:40:18.742Z,14.72
2023-01-01T04:41:18.713Z,14.70
2023-01-01T04:42:18.723Z,14.69
2023-01-01T04:43:18.741Z,14.77
2023-01-01T04:44:18.717Z,14.65
2023-01-01T04:45:18.692Z,14.72
2023-01-01T04:46:18.667Z,14.70
2023-01-01T04:47:18.648Z,14.60
2023-01-01T04:48:18.687Z,14.61
2023-01-01T04:49:18.642Z,14.62
2023-01-01T04:50:18.634Z,14.60
2023-01-01T04:51:18.648Z,14.57
2023-01-01T04:52:18.612Z,14.62
2023-01-01T04:53:18.579Z,14.70
2023-01-01T04:54:18.612Z,14.69
2023-01-01T04:55:18.572Z,14.58
2023-01-01T04:56:18.567Z,14.64
2023-01-01T04:57:18.542Z,14.62
2023-01-01T04:58:18.639Z,14.61
2023-01-01T04:59:18.533Z,14.65
2023-01-01T05:00:18.532Z,14.73
2023-01-01T05:01:18.615Z,14.64
2023-01-01T05:02:18.599Z,14.70
2023-01-01T05:03:18.475Z,14.60
2023-01-01T05:04:18.465Z,14.64
2023-01-01T05:05:18.482Z,14.57
2023-01-01T05:06:18.460Z,14.61
2023-01-01T05:07:18.425Z,14.57
2023-01-01T05:08:18.410Z,14.61
2023-01-01T05:09:18.400Z,14.57
2023-01-01T05:10:18.406Z,14.62
2023-01-01T05:11:18.399Z,14.62
2023-01-01T05:12:18.389Z,14.54
2023-01-01T05:13:18.351Z,14.54
2023-01-01T05:14:18.372Z,14.61
2023-01-01T05:15:18.379Z,14.58
2023-01-01T05:16:18.431Z,14.50
2023-01-01T05:17:18.327Z,14.57
2023-01-01T05:18:18.325Z,14.62
2023-01-01T05:19:18.286Z,14.58
2023-01-01T05:20:18.284Z,14.62
2023-01-01T05:21:18.269Z,14.61
2023-01-01T05:22:18.276Z,14.58
2023-01-01T05:23:18.243Z,14.60
2023-01-01T05:24:18.263Z,14.54
2023-01-01T05:25:18.215Z,14.60
2023-01-01T05:26:18.212Z,14.62
2023-01-01T05:27:18.194Z,14.58
2023-01-01T05:28:18.196Z,14.62
2023-01-01T05:29:18.195Z,14.58
2023-01-01T05:30:18.215Z,14.57
2023-01-01T05:31:18.282Z,14.65
2023-01-01T05:32:18.145Z,14.62
2023-01-01T05:33:18.136Z,14.55
2023-01-01T05:34:18.145Z,14.57
2023-01-01T05:35:23.025Z,14.46
2023-01-01T05:36:19.155Z,14.57
2023-01-01T05:37:18.098Z,14.50
2023-01-01T05:38:18.074Z,14.51
2023-01-01T05:39:18.081Z,14.47
2023-01-01T05:40:18.055Z,14.46
2023-01-01T05:41:18.052Z,14.46
2023-01-01T05:42:18.047Z,14.54
2023-01-01T05:43:18.017Z,14.50
2023-01-01T05:44:18.014Z,14.50
2023-01-01T05:45:18.022Z,14.46
2023-01-01T05:46:18.015Z,14.54
2023-01-01T05:47:17.989Z,14.50
2023-01-01T05:48:18.039Z,14.43
2023-01-01T05:49:17.973Z,14.51
2023-01-01T05:50:17.954Z,14.46
2023-01-01T05:51:17.942Z,14.45
2023-01-01T05:52:21.601Z,14.45
2023-01-01T05:53:18.902Z,14.50
2023-01-01T05:54:18.984Z,14.50
2023-01-01T05:55:17.908Z,14.45
2023-01-01T05:56:17.879Z,14.47
2023-01-01T05:57:17.875Z,14.47
2023-01-01T05:58:17.868Z,14.55
2023-01-01T05:59:17.890Z,14.45
2023-01-01T06:00:17.860Z,14.45
2023-01-01T06:01:17.934Z,14.47
2023-01-01T06:02:17.905Z,14.51
2023-01-01T06:03:17.833Z,14.47
2023-01-01T06:04:17.819Z,14.45
2023-01-01T06:05:17.792Z,14.46
2023-01-01T06:06:17.811Z,14.50
2023-01-01T06:07:17.791Z,14.47
2023-01-01T06:08:17.749Z,14.40
2023-01-01T06:09:17.738Z,14.46
2023-01-01T06:10:17.721Z,14.45
2023-01-01T06:11:17.765Z,14.47
2023-01-01T06:12:17.705Z,14.46
2023-01-01T06:13:17.691Z,14.42
2023-01-01T06:14:17.676Z,14.45
2023-01-01T06:15:17.684Z,14.45
2023-01-01T06:16:17.716Z,14.42
2023-01-01T06:17:17.677Z,14.40
2023-01-01T06:18:17.626Z,14.42
2023-01-01T06:19:17.627Z,14.40
2023-01-01T06:20:17.650Z,14.43
2023-01-01T06:21:17.606Z,14.43
2023-01-01T06:22:17.598Z,14.43
2023-01-01T06:23:17.610Z,14.52
2023-01-01T06:24:17.595Z,14.47
2023-01-01T06:25:17.547Z,14.50
2023-01-01T06:26:17.569Z,14.51
2023-01-01T06:27:17.525Z,14.51
2023-01-01T06:28:17.528Z,14.51
2023-01-01T06:29:17.547Z,14.52
2023-01-01T06:30:17.515Z,14.52
2023-01-01T06:31:17.544Z,14.51
2023-01-01T06:32:17.495Z,14.50
2023-01-01T06:33:17.462Z,14.43
2023-01-01T06:34:17.469Z,14.50
2023-01-01T06:35:17.533Z,14.47
2023-01-01T06:36:17.466Z,14.52
2023-01-01T06:37:17.415Z,14.52
2023-01-01T06:38:17.400Z,14.50
2023-01-01T06:39:17.400Z,14.50
2023-01-01T06:40:17.402Z,14.46
2023-01-01T06:41:17.409Z,14.46
2023-01-01T06:42:17.385Z,14.43
2023-01-01T06:43:17.355Z,14.45
2023-01-01T06:44:17.340Z,14.42
2023-01-01T06:45:17.340Z,14.35
2023-01-01T06:46:17.351Z,14.35
2023-01-01T06:47:17.350Z,14.40
2023-01-01T06:48:17.291Z,14.37
2023-01-01T06:49:17.304Z,14.36
2023-01-01T06:50:17.270Z,14.51
2023-01-01T06:51:17.306Z,14.39
2023-01-01T06:52:17.241Z,14.47
2023-01-01T06:53:17.281Z,14.39
2023-01-01T06:54:17.229Z,14.36
2023-01-01T06:55:17.209Z,14.36
2023-01-01T06:56:17.237Z,14.40
2023-01-01T06:57:17.182Z,14.35
2023-01-01T06:58:17.204Z,14.33
2023-01-01T06:59:17.193Z,14.43
2023-01-01T07:00:17.156Z,14.35
2023-01-01T07:01:17.404Z,14.43
2023-01-01T07:02:17.268Z,14.43
2023-01-01T07:03:17.253Z,14.40
2023-01-01T07:04:17.118Z,14.42
2023-01-01T07:05:17.148Z,14.42
2023-01-01T07:06:17.100Z,14.36
2023-01-01T07:07:17.153Z,14.36
2023-01-01T07:08:17.083Z,14.46
2023-01-01T07:09:17.062Z,14.35
2023-01-01T07:10:17.058Z,14.43
2023-01-01T07:11:17.065Z,14.40
2023-01-01T07:12:17.036Z,14.35
2023-01-01T07:13:17.003Z,14.37
2023-01-01T07:14:16.999Z,14.27
2023-01-01T07:15:16.982Z,14.29
2023-01-01T07:16:17.034Z,14.36
2023-01-01T07:17:16.987Z,14.37
2023-01-01T07:18:16.955Z,14.29
2023-01-01T07:19:16.938Z,14.29
2023-01-01T07:20:16.941Z,14.36
2023-01-01T07:21:16.932Z,14.37
2023-01-01T07:22:16.926Z,14.37
2023-01-01T07:23:16.978Z,14.39
2023-01-01T07:24:16.886Z,14.21
2023-01-01T07:25:16.872Z,14.35
2023-01-01T07:26:16.859Z,14.33
2023-01-01T07:27:16.878Z,14.28
2023-01-01T07:28:16.847Z,14.33
2023-01-01T07:29:16.872Z,14.33
2023-01-01T07:30:16.865Z,14.29
2023-01-01T07:31:16.866Z,14.39
2023-01-01T07:32:16.831Z,14.25
2023-01-01T07:33:16.789Z,14.36
2023-01-01T07:34:16.776Z,14.33
2023-01-01T07:35:16.795Z,14.29
2023-01-01T07:36:16.781Z,14.33
2023-01-01T07:37:16.761Z,14.32
2023-01-01T07:38:16.775Z,14.32
2023-01-01T07:39:16.743Z,14.25
2023-01-01T07:40:16.716Z,14.36
2023-01-01T07:41:16.727Z,14.32
2023-01-01T07:42:16.696Z,14.32
2023-01-01T07:43:16.694Z,14.33
2023-01-01T07:44:16.673Z,14.37
2023-01-01T07:45:16.665Z,14.37
2023-01-01T07:46:16.710Z,14.52
2023-01-01T07:47:16.635Z,14.43
2023-01-01T07:48:16.650Z,14.51
2023-01-01T07:49:16.625Z,14.42
2023-01-01T07:50:16.626Z,14.35
2023-01-01T07:51:16.595Z,14.43
2023-01-01T07:52:16.623Z,14.42
2023-01-01T07:53:16.575Z,14.39
2023-01-01T07:54:16.579Z,14.39
2023-01-01T07:55:16.565Z,14.42
2023-01-01T07:56:16.540Z,14.39
2023-01-01T07:57:16.524Z,14.37
2023-01-01T07:58:16.554Z,14.43
2023-01-01T07:59:20.350Z,14.47
2023-01-01T08:00:16.516Z,14.46
2023-01-01T08:01:16.576Z,14.47
2023-01-01T08:02:16.676Z,14.43
2023-01-01T08:03:16.528Z,14.36
2023-01-01T08:04:16.456Z,14.39
2023-01-01T08:05:19.960Z,14.42
2023-01-01T08:06:17.428Z,14.46
2023-01-01T08:07:16.410Z,14.51
2023-01-01T08:08:16.404Z,14.50
2023-01-01T08:09:16.405Z,14.43
2023-01-01T08:10:16.483Z,14.43
2023-01-01T08:11:16.393Z,14.45
2023-01-01T08:12:16.361Z,14.50
2023-01-01T08:13:16.345Z,14.45
2023-01-01T08:14:16.340Z,14.52
2023-01-01T08:15:16.320Z,14.45
2023-01-01T08:16:16.482Z,14.52
2023-01-01T08:17:16.296Z,14.46
2023-01-01T08:18:16.292Z,14.52
2023-01-01T08:19:16.289Z,14.47
2023-01-01T08:20:16.280Z,14.47
2023-01-01T08:21:16.257Z,14.45
2023-01-01T08:22:16.299Z,14.46
2023-01-01T08:23:16.231Z,14.55
2023-01-01T08:24:16.227Z,14.50
2023-01-01T08:25:16.203Z,14.50
2023-01-01T08:26:16.192Z,14.46
2023-01-01T08:27:16.222Z,14.45
2023-01-01T08:28:16.235Z,14.47
2023-01-01T08:29:16.170Z,14.52
2023-01-01T08:30:16.163Z,14.51
2023-01-01T08:31:16.168Z,14.50
2023-01-01T08:32:16.805Z,14.54
2023-01-01T08:33:16.212Z,14.50
2023-01-01T08:34:16.109Z,14.55
2023-01-01T08:35:16.125Z,14.50
2023-01-01T08:36:16.086Z,14.50
2023-01-01T08:37:16.076Z,14.47
2023-01-01T08:38:16.070Z,14.47
2023-01-01T08:39:16.091Z,14.52
2023-01-01T08:40:16.049Z,14.50
2023-01-01T08:41:16.040Z,14.51
2023-01-01T08:42:16.038Z,14.57
2023-01-01T08:43:16.023Z,14.45
2023-01-01T08:44:15.999Z,14.46
2023-01-01T08:45:16.024Z,14.50
2023-01-01T08:46:16.029Z,14.50
2023-01-01T08:47:15.963Z,14.42
2023-01-01T08:48:15.984Z,14.42
2023-01-01T08:49:15.945Z,14.50
2023-01-01T08:50:15.967Z,14.40
2023-01-01T08:51:15.965Z,14.42
2023-01-01T08:52:15.924Z,14.39
2023-01-01T08:53:15.914Z,14.46
2023-01-01T08:54:15.887Z,14.37
2023-01-01T08:55:15.875Z,14.46
2023-01-01T08:56:15.872Z,14.50
2023-01-01T08:57:15.896Z,14.43
2023-01-01T08:58:15.878Z,14.46
2023-01-01T08:59:15.891Z,14.45
2023-01-01T09:00:15.817Z,14.39
2023-01-01T09:01:15.876Z,14.37
2023-01-01T09:02:15.937Z,14.43
2023-01-01T09:03:15.877Z,14.55
2023-01-01T09:04:16.056Z,14.40
2023-01-01T09:05:15.783Z,14.55
2023-01-01T09:06:15.751Z,14.42
2023-01-01T09:13:06.121Z,14.32
2023-01-01T09:14:06.051Z,14.40
2023-01-01T09:15:06.122Z,14.36
2023-01-01T09:16:06.092Z,14.37
2023-01-01T09:17:06.052Z,14.40
2023-01-01T09:18:06.056Z,14.35
2023-01-01T09:19:06.009Z,14.40
2023-01-01T09:20:06.001Z,14.46
2023-01-01T09:21:06.003Z,14.40
2023-01-01T09:22:05.978Z,14.50
2023-01-01T09:23:06.302Z,14.50
2023-01-01T09:24:05.950Z,14.50
2023-01-01T09:25:05.955Z,14.47
2023-01-01T09:26:05.926Z,14.50
2023-01-01T09:27:05.945Z,14.55
2023-01-01T09:28:05.904Z,14.45
2023-01-01T09:29:05.929Z,14.46
2023-01-01T09:30:05.879Z,14.51
2023-01-01T09:31:05.915Z,14.47
2023-01-01T09:32:05.894Z,14.46
2023-01-01T09:33:05.843Z,14.55
2023-01-01T09:34:05.833Z,14.47
2023-01-01T09:35:05.842Z,14.52
2023-01-01T09:36:05.834Z,14.51
2023-01-01T09:37:05.803Z,14.46
2023-01-01T09:38:05.787Z,14.50
2023-01-01T09:39:05.783Z,14.45
2023-01-01T09:40:05.797Z,14.52
2023-01-01T09:41:05.752Z,14.57
2023-01-01T09:42:05.819Z,14.50
2023-01-01T09:43:05.729Z,14.46
2023-01-01T09:44:05.731Z,14.47
2023-01-01T09:45:05.766Z,14.47
2023-01-01T09:46:05.722Z,14.45
2023-01-01T09:47:05.786Z,14.51
2023-01-01T09:48:05.718Z,14.52
2023-01-01T09:49:05.671Z,14.47
2023-01-01T09:50:05.652Z,14.50
2023-01-01T09:51:05.678Z,14.50
2023-01-01T09:52:05.643Z,14.51
2023-01-01T09:53:05.628Z,14.47
2023-01-01T09:54:05.625Z,14.50
2023-01-01T09:55:05.599Z,14.50
2023-01-01T09:56:05.611Z,14.47
2023-01-01T09:57:05.603Z,14.51
2023-01-01T09:58:05.599Z,14.51
2023-01-01T09:59:05.561Z,14.52
2023-01-01T10:00:05.563Z,14.52
2023-01-01T10:01:05.646Z,14.57
2023-01-01T10:02:05.682Z,14.52
2023-01-01T10:03:05.551Z,14.51
2023-01-01T10:04:05.557Z,14.47
2023-01-01T10:05:05.493Z,14.50
2023-01-01T10:06:05.561Z,14.46
2023-01-01T10:07:05.471Z,14.42
2023-01-01T10:08:05.470Z,14.43
2023-01-01T10:09:05.493Z,14.46
2023-01-01T10:10:05.434Z,14.47
2023-01-01T10:11:05.431Z,14.46
2023-01-01T10:12:05.419Z,14.55
2023-01-01T10:13:05.428Z,14.47
2023-01-01T10:14:05.419Z,14.51
2023-01-01T10:15:05.381Z,14.51
2023-01-01T10:16:05.381Z,14.50
2023-01-01T10:17:05.474Z,14.45
2023-01-01T10:18:05.361Z,14.46
2023-01-01T10:19:05.364Z,14.47
2023-01-01T10:20:05.331Z,14.55
2023-01-01T10:21:05.312Z,14.51
2023-01-01T10:22:05.323Z,14.50
2023-01-01T10:23:05.298Z,14.52
2023-01-01T10:24:05.300Z,14.46
2023-01-01T10:25:05.291Z,14.51
2023-01-01T10:26:05.251Z,14.47
2023-01-01T10:27:05.274Z,14.50
2023-01-01T10:28:05.254Z,14.40
2023-01-01T10:29:05.234Z,14.51
2023-01-01T10:30:05.379Z,14.50
2023-01-01T10:31:05.200Z,14.45
2023-01-01T10:32:05.271Z,14.47
2023-01-01T10:33:05.178Z,14.50
2023-01-01T10:34:05.203Z,14.54
2023-01-01T10:35:05.167Z,14.43
2023-01-01T10:36:05.138Z,14.50
2023-01-01T10:37:05.152Z,14.47
2023-01-01T10:38:05.118Z,14.55
2023-01-01T10:39:05.122Z,14.46
2023-01-01T10:40:05.139Z,14.50
2023-01-01T10:41:05.111Z,14.46
2023-01-01T10:42:05.103Z,14.51
2023-01-01T10:43:05.100Z,14.55
2023-01-01T10:44:05.064Z,14.55
2023-01-01T10:45:05.053Z,14.57
2023-01-01T10:46:05.131Z,14.52
2023-01-01T10:47:05.024Z,14.52
2023-01-01T10:48:05.006Z,14.52
2023-01-01T10:49:05.023Z,14.54
2023-01-01T10:50:04.995Z,14.60
2023-01-01T10:51:05.002Z,14.54
2023-01-01T10:52:05.012Z,14.58
2023-01-01T10:53:04.952Z,14.50
2023-01-01T10:54:04.944Z,14.57
2023-01-01T10:55:04.936Z,14.60
2023-01-01T10:56:04.921Z,14.65
2023-01-01T10:57:04.934Z,14.55
2023-01-01T10:58:04.912Z,14.57
2023-01-01T10:59:04.889Z,14.64
2023-01-01T11:00:04.870Z,14.60
2023-01-01T11:01:05.034Z,14.61
2023-01-01T11:02:05.643Z,14.62
2023-01-01T11:03:04.858Z,14.58
2023-01-01T11:04:04.864Z,14.60
2023-01-01T11:05:10.372Z,14.58
2023-01-01T11:06:05.821Z,14.62
2023-01-01T11:07:04.828Z,14.62
2023-01-01T11:08:04.786Z,14.61
2023-01-01T11:09:04.808Z,14.60
2023-01-01T11:10:05.224Z,14.62
2023-01-01T11:11:04.775Z,14.55
2023-01-01T11:12:11.772Z,14.52
2023-01-01T11:13:06.539Z,14.61
2023-01-01T11:14:04.760Z,14.57
2023-01-01T11:15:04.745Z,14.52
2023-01-01T11:16:04.703Z,14.55
2023-01-01T11:17:04.742Z,14.60
2023-01-01T11:18:04.714Z,14.52
2023-01-01T11:19:04.670Z,14.47
2023-01-01T11:20:04.663Z,14.52
2023-01-01T11:21:04.698Z,14.51
2023-01-01T11:22:04.649Z,14.52
2023-01-01T11:23:04.661Z,14.52
2023-01-01T11:24:04.634Z,14.54
2023-01-01T11:25:04.628Z,14.52
2023-01-01T11:26:04.606Z,14.55
2023-01-01T11:27:04.580Z,14.50
2023-01-01T11:28:04.617Z,14.50
2023-01-01T11:29:04.559Z,14.51
2023-01-01T11:30:04.545Z,14.54
2023-01-01T11:31:04.656Z,14.55
2023-01-01T11:32:04.539Z,14.55
2023-01-01T11:33:04.518Z,14.54
2023-01-01T11:34:04.534Z,14.51
2023-01-01T11:35:04.521Z,14.50
2023-01-01T11:36:04.504Z,14.55
2023-01-01T11:37:04.474Z,14.55
2023-01-01T11:38:04.459Z,14.51
2023-01-01T11:39:04.577Z,14.50
2023-01-01T11:40:05.353Z,14.52
2023-01-01T11:41:04.462Z,14.50
2023-01-01T11:42:04.413Z,14.50
2023-01-01T11:43:04.424Z,14.52
2023-01-01T11:44:04.389Z,14.51
2023-01-01T11:45:04.411Z,14.50
2023-01-01T11:46:04.449Z,14.47
2023-01-01T11:47:04.366Z,14.51
2023-01-01T11:48:04.348Z,14.46
2023-01-01T11:49:04.341Z,14.46
2023-01-01T11:50:04.344Z,14.50
2023-01-01T11:51:04.327Z,14.51
2023-01-01T11:52:04.328Z,14.52
2023-01-01T11:53:04.292Z,14.58
2023-01-01T11:54:04.292Z,14.52
2023-01-01T11:55:04.300Z,14.57
2023-01-01T11:56:04.277Z,14.52
2023-01-01T11:57:04.253Z,14.52
2023-01-01T11:58:04.274Z,14.58
2023-01-01T11:59:04.234Z,14.58
2023-01-01T12:00:04.233Z,14.58
2023-01-01T12:01:04.283Z,14.61
2023-01-01T12:02:04.215Z,14.55
2023-01-01T12:03:04.207Z,14.57
2023-01-01T12:04:04.243Z,14.58
2023-01-01T12:05:04.176Z,14.61
2023-01-01T12:06:04.150Z,14.55
2023-01-01T12:07:04.142Z,14.60
2023-01-01T12:08:04.145Z,14.52
2023-01-01T12:09:04.130Z,14.57
2023-01-01T12:10:04.133Z,14.58
2023-01-01T12:11:04.117Z,14.55
2023-01-01T12:12:04.099Z,14.65
2023-01-01T12:13:04.078Z,14.62
2023-01-01T12:14:04.219Z,14.58
2023-01-01T12:15:04.050Z,14.52
2023-01-01T12:16:04.116Z,14.54
2023-01-01T12:17:04.018Z,14.52
2023-01-01T12:18:04.034Z,14.57
2023-01-01T12:19:04.001Z,14.55
2023-01-01T12:20:04.010Z,14.50
2023-01-01T12:21:03.993Z,14.52
2023-01-01T12:22:04.005Z,14.58
2023-01-01T12:23:03.965Z,14.55
2023-01-01T12:24:04.027Z,14.60
2023-01-01T12:25:03.952Z,14.52
2023-01-01T12:26:03.924Z,14.50
2023-01-01T12:27:10.366Z,14.50
2023-01-01T12:28:04.940Z,14.60
2023-01-01T12:29:03.891Z,14.51
2023-01-01T12:30:03.908Z,14.50
2023-01-01T12:31:03.991Z,14.47
2023-01-01T12:32:03.867Z,14.57
2023-01-01T12:33:08.082Z,14.51
2023-01-01T12:34:03.922Z,14.51
2023-01-01T12:35:03.823Z,14.62
2023-01-01T12:36:03.815Z,14.50
2023-01-01T12:37:03.794Z,14.52
2023-01-01T12:38:03.808Z,14.54
2023-01-01T12:39:03.810Z,14.57
2023-01-01T12:40:07.539Z,14.57
2023-01-01T12:41:04.791Z,14.65
2023-01-01T12:42:03.742Z,14.54
2023-01-01T12:43:03.862Z,14.54
2023-01-01T12:44:03.736Z,14.60
2023-01-01T12:45:03.726Z,14.58
2023-01-01T12:46:03.770Z,14.60
2023-01-01T12:47:03.701Z,14.52
2023-01-01T12:48:03.702Z,14.62
2023-01-01T12:49:03.701Z,14.58
2023-01-01T12:50:03.652Z,14.64
2023-01-01T12:51:05.724Z,14.52
2023-01-01T12:52:03.656Z,14.54
2023-01-01T12:53:03.621Z,14.52
2023-01-01T12:54:03.674Z,14.60
2023-01-01T12:55:03.619Z,14.58
2023-01-01T12:56:03.596Z,14.47
2023-01-01T12:57:03.578Z,14.54
2023-01-01T12:58:03.642Z,14.55
2023-01-01T12:59:03.587Z,14.52